Time;durP1;ratioP1;P1;durP2;ratioP2;P2;SDS_P1;SDS_P2;PMS_P1;PMS_P2;Temp;Humidity;BMP_temperature;BMP_pressure;BME280_temperature;BME280_humidity;BME280_pressure;Samples;Min_cycle;Max_cycle;Signal;HPM_P1;HPM_P2
2022/04/16 00:02:09;;;;;;;16.42;10.82;;;8.60;99.90;;;;;;5072621;28;20101;-64
2022/04/16 00:04:36;;;;;;;16.75;11.68;;;8.60;99.90;;;;;;5072567;28;20044;-64
2022/04/16 00:07:02;;;;;;;17.85;11.70;;;8.70;99.90;;;;;;5072892;28;20098;-64
2022/04/16 00:09:28;;;;;;;16.65;11.10;;;8.70;99.90;;;;;;5073186;28;20040;-65
2022/04/16 00:11:54;;;;;;;15.75;11.98;;;8.60;99.90;;;;;;5072720;28;20401;-65
2022/04/16 00:14:20;;;;;;;17.95;12.60;;;8.60;99.90;;;;;;5072158;28;20045;-64
2022/04/16 00:16:46;;;;;;;15.95;11.43;;;8.60;99.90;;;;;;5071009;28;20040;-64
2022/04/16 00:19:12;;;;;;;15.18;11.65;;;8.50;99.90;;;;;;5071498;28;20052;-64
2022/04/16 00:21:39;;;;;;;16.50;11.88;;;8.40;99.90;;;;;;5073675;28;20080;-64
2022/04/16 00:24:07;;;;;;;17.17;12.35;;;8.40;99.90;;;;;;5072060;28;20513;-64
2022/04/16 00:26:40;;;;;;;16.90;12.25;;;8.30;99.90;;;;;;5072323;28;20135;-65
2022/04/16 00:29:07;;;;;;;16.83;12.63;;;8.30;99.90;;;;;;5071984;28;20044;-65
2022/04/16 00:31:32;;;;;;;18.83;12.73;;;8.30;99.90;;;;;;5073237;28;20041;-64
2022/04/16 00:33:58;;;;;;;16.48;11.63;;;8.20;99.90;;;;;;5072184;28;20063;-64
2022/04/16 00:36:24;;;;;;;21.30;12.55;;;8.20;99.90;;;;;;5073270;28;20473;-65
2022/04/16 00:38:50;;;;;;;18.90;13.23;;;8.10;99.90;;;;;;5072059;28;20469;-64
2022/04/16 00:41:15;;;;;;;17.25;12.60;;;8.00;99.90;;;;;;5071878;28;20647;-64
2022/04/16 00:43:42;;;;;;;17.60;12.45;;;7.90;99.90;;;;;;5071951;28;20517;-64
2022/04/16 00:46:08;;;;;;;18.00;11.65;;;7.80;99.90;;;;;;5072939;28;20119;-64
2022/04/16 00:48:34;;;;;;;18.98;12.65;;;7.70;99.90;;;;;;5053129;28;20123;-64
2022/04/16 00:50:59;;;;;;;18.75;12.77;;;7.60;99.90;;;;;;5073030;28;20036;-64
2022/04/16 00:53:27;;;;;;;18.17;13.45;;;7.50;99.90;;;;;;5072613;28;20041;-64
2022/04/16 00:55:53;;;;;;;15.80;11.57;;;7.50;99.90;;;;;;5072968;28;20048;-64
2022/04/16 00:58:19;;;;;;;19.88;12.30;;;7.30;99.90;;;;;;5054934;28;20041;-64
2022/04/16 01:00:45;;;;;;;15.68;12.27;;;7.20;99.90;;;;;;5054806;28;20521;-64
2022/04/16 01:03:10;;;;;;;18.10;12.70;;;7.20;99.90;;;;;;5055197;28;20040;-64
2022/04/16 01:05:37;;;;;;;17.73;12.45;;;7.10;99.90;;;;;;5071491;28;20044;-64
2022/04/16 01:08:04;;;;;;;18.42;12.35;;;7.00;99.90;;;;;;5072962;28;20044;-64
2022/04/16 01:10:31;;;;;;;16.52;12.55;;;6.90;99.90;;;;;;5071385;28;20040;-64
2022/04/16 01:12:59;;;;;;;19.40;13.48;;;6.90;99.90;;;;;;5065925;28;20044;-64
2022/04/16 01:15:27;;;;;;;17.77;13.63;;;6.80;99.90;;;;;;5052516;28;20045;-64
2022/04/16 01:17:54;;;;;;;17.38;12.90;;;6.70;99.90;;;;;;5049205;28;20470;-64
2022/04/16 01:20:20;;;;;;;19.38;13.50;;;6.70;99.90;;;;;;5052766;28;20041;-64
2022/04/16 01:22:48;;;;;;;23.20;13.57;;;6.60;99.90;;;;;;5052568;28;20402;-64
2022/04/16 01:25:14;;;;;;;18.45;12.55;;;6.50;99.90;;;;;;5052644;28;20072;-64
2022/04/16 01:27:43;;;;;;;23.27;14.05;;;6.50;99.90;;;;;;5051503;28;20517;-65
2022/04/16 01:30:14;;;;;;;19.88;13.48;;;6.40;99.90;;;;;;5051114;28;20098;-64
2022/04/16 01:32:42;;;;;;;20.92;13.40;;;6.40;99.90;;;;;;5051800;28;20090;-65
2022/04/16 01:35:10;;;;;;;21.60;13.23;;;6.30;99.90;;;;;;5052419;28;20037;-64
2022/04/16 01:37:37;;;;;;;18.67;13.13;;;6.30;99.90;;;;;;5051199;28;20033;-64
2022/04/16 01:40:09;;;;;;;21.50;13.35;;;6.30;99.90;;;;;;5052390;28;20037;-64
2022/04/16 01:42:35;;;;;;;17.98;13.98;;;6.20;99.90;;;;;;5051123;28;20076;-65
2022/04/16 01:45:03;;;;;;;19.88;13.68;;;6.20;99.90;;;;;;5051353;28;20187;-65
2022/04/16 01:47:29;;;;;;;24.35;16.13;;;6.20;99.90;;;;;;5049117;28;20037;-65
2022/04/16 01:49:56;;;;;;;19.85;15.27;;;6.10;99.90;;;;;;5052255;28;20060;-65
2022/04/16 01:52:23;;;;;;;21.65;15.35;;;6.10;99.90;;;;;;5034635;28;20037;-64
2022/04/16 01:54:50;;;;;;;22.50;15.25;;;6.10;99.90;;;;;;5051302;28;20136;-65
2022/04/16 01:57:18;;;;;;;24.48;15.55;;;6.10;99.90;;;;;;5052126;28;20037;-64
2022/04/16 01:59:48;;;;;;;28.55;15.57;;;6.10;99.90;;;;;;5052435;28;20045;-64
2022/04/16 02:02:15;;;;;;;21.17;15.13;;;6.00;99.90;;;;;;5051109;28;20033;-64
2022/04/16 02:04:41;;;;;;;19.20;14.05;;;6.00;99.90;;;;;;5054120;28;20037;-64
2022/04/16 02:07:07;;;;;;;18.23;13.82;;;6.00;99.90;;;;;;5038444;28;20557;-64
2022/04/16 02:09:33;;;;;;;24.85;14.95;;;5.90;99.90;;;;;;5056013;28;20040;-64
2022/04/16 02:11:59;;;;;;;18.60;13.18;;;5.90;99.90;;;;;;5054544;28;20474;-64
2022/04/16 02:14:24;;;;;;;20.98;15.25;;;5.80;99.90;;;;;;5070517;28;20036;-64
2022/04/16 02:16:50;;;;;;;25.95;16.65;;;5.80;99.90;;;;;;5074432;28;20559;-64
2022/04/16 02:19:16;;;;;;;24.83;15.50;;;5.80;99.90;;;;;;5057678;28;20131;-65
2022/04/16 02:21:44;;;;;;;28.17;18.45;;;5.80;99.90;;;;;;5074535;28;20052;-65
2022/04/16 02:24:10;;;;;;;28.42;18.17;;;5.80;99.90;;;;;;5057853;28;20041;-64
2022/04/16 02:26:37;;;;;;;28.33;18.85;;;5.80;99.90;;;;;;5074326;28;20059;-65
2022/04/16 02:29:04;;;;;;;28.42;18.60;;;5.80;99.90;;;;;;5057679;28;20044;-64
2022/04/16 02:31:30;;;;;;;32.65;20.30;;;5.90;99.90;;;;;;5075573;28;20813;-65
2022/04/16 02:33:56;;;;;;;33.42;21.42;;;6.00;99.90;;;;;;5074347;28;20055;-65
2022/04/16 02:36:25;;;;;;;35.15;21.02;;;6.00;99.90;;;;;;5075502;28;20043;-65
2022/04/16 02:38:54;;;;;;;33.17;19.95;;;6.10;99.90;;;;;;5074488;28;20071;-64
2022/04/16 02:41:24;;;;;;;34.30;19.90;;;6.20;99.90;;;;;;5075516;28;20036;-65
2022/04/16 02:43:49;;;;;;;31.75;20.70;;;6.20;99.90;;;;;;5075322;28;20190;-65
2022/04/16 02:49:00;;;;;;;33.22;20.20;;;6.30;99.90;;;;;;5072970;28;20040;-65
2022/04/16 02:51:27;;;;;;;29.25;19.17;;;6.30;99.90;;;;;;5074058;28;20037;-65
2022/04/16 02:53:52;;;;;;;32.47;20.83;;;6.30;99.90;;;;;;5075453;28;20032;-65
2022/04/16 02:56:18;;;;;;;30.15;20.73;;;6.30;99.90;;;;;;5074240;28;20089;-64
2022/04/16 02:58:44;;;;;;;29.85;20.65;;;6.40;99.90;;;;;;5075324;28;20041;-65
2022/04/16 03:01:10;;;;;;;26.25;19.00;;;6.40;99.90;;;;;;5073817;28;20072;-65
2022/04/16 03:03:36;;;;;;;28.67;19.05;;;6.40;99.90;;;;;;5057122;28;20055;-64
2022/04/16 03:06:02;;;;;;;29.35;21.25;;;6.40;99.90;;;;;;5073633;28;20052;-65
2022/04/16 03:08:28;;;;;;;32.75;21.27;;;6.40;99.90;;;;;;5075149;28;20049;-65
2022/04/16 03:10:55;;;;;;;32.78;21.10;;;6.40;99.90;;;;;;5073609;28;20037;-65
2022/04/16 03:13:21;;;;;;;32.22;20.52;;;6.50;99.90;;;;;;5067771;28;20087;-65
2022/04/16 03:18:33;;;;;;;30.73;22.20;;;6.50;99.90;;;;;;5051542;28;20045;-65
2022/04/16 03:20:59;;;;;;;31.20;20.33;;;6.60;99.90;;;;;;5054627;28;20047;-64
2022/04/16 03:23:25;;;;;;;36.65;21.38;;;6.60;99.90;;;;;;5054427;28;20132;-65
2022/04/16 03:25:53;;;;;;;31.45;21.30;;;6.60;99.90;;;;;;5054791;28;20079;-64
2022/04/16 03:28:19;;;;;;;33.50;23.15;;;6.70;99.90;;;;;;5054612;28;20124;-65
2022/04/16 03:30:45;;;;;;;35.75;22.10;;;6.70;99.90;;;;;;5054426;28;20052;-65
2022/04/16 03:33:11;;;;;;;29.70;20.27;;;6.70;99.90;;;;;;5036504;28;20047;-64
2022/04/16 03:35:37;;;;;;;29.90;20.33;;;6.70;99.90;;;;;;5053199;28;20041;-64
2022/04/16 03:38:04;;;;;;;38.25;23.45;;;6.70;99.90;;;;;;5054494;28;20117;-64
2022/04/16 03:40:29;;;;;;;36.80;23.08;;;6.70;99.90;;;;;;5053319;28;20099;-64
2022/04/16 03:43:00;;;;;;;37.38;21.73;;;6.70;99.90;;;;;;5054052;28;20049;-64
2022/04/16 03:45:31;;;;;;;34.65;22.75;;;6.70;99.90;;;;;;5052985;28;20049;-64
2022/04/16 03:47:58;;;;;;;38.58;23.38;;;6.70;99.90;;;;;;5050643;28;20458;-64
2022/04/16 03:50:26;;;;;;;39.25;24.50;;;6.70;99.90;;;;;;5052876;28;20543;-65
2022/04/16 03:52:53;;;;;;;40.65;24.35;;;6.70;99.90;;;;;;5053016;28;20091;-64
2022/04/16 04:00:52;;;;;;;41.28;24.38;;;6.80;99.90;;;;;;5054123;28;20048;-64
2022/04/16 04:03:18;;;;;;;38.45;24.23;;;6.80;99.90;;;;;;5052538;28;20048;-64
2022/04/16 04:05:45;;;;;;;43.25;27.02;;;6.80;99.90;;;;;;5036340;28;20044;-64
2022/04/16 04:08:12;;;;;;;41.13;24.70;;;6.80;99.90;;;;;;5052484;28;20072;-65
2022/04/16 04:10:38;;;;;;;38.85;25.33;;;6.80;99.90;;;;;;5035899;28;20047;-65
2022/04/16 04:13:04;;;;;;;39.35;25.63;;;6.90;99.90;;;;;;5055859;28;20028;-65
2022/04/16 04:15:30;;;;;;;43.60;26.83;;;6.90;99.90;;;;;;5072323;28;20044;-65
2022/04/16 04:17:58;;;;;;;40.70;26.83;;;6.90;99.90;;;;;;5053681;28;20072;-64
2022/04/16 04:20:25;;;;;;;49.72;28.05;;;6.90;99.90;;;;;;5072259;28;20123;-65
2022/04/16 04:22:51;;;;;;;44.50;25.60;;;6.90;99.90;;;;;;5073398;28;20110;-65
2022/04/16 04:25:17;;;;;;;45.50;27.40;;;6.90;99.90;;;;;;5073395;28;20048;-65
2022/04/16 04:27:43;;;;;;;47.08;27.25;;;6.90;99.90;;;;;;5072865;28;20123;-65
2022/04/16 04:30:10;;;;;;;45.53;26.67;;;6.90;99.90;;;;;;5073258;28;20041;-65
2022/04/16 04:32:38;;;;;;;39.88;26.02;;;7.00;99.90;;;;;;5072231;28;20041;-66
2022/04/16 04:35:08;;;;;;;42.50;26.10;;;7.00;99.90;;;;;;5072335;28;20384;-65
2022/04/16 04:37:35;;;;;;;;;;;7.00;99.90;;;;;;5055953;28;20094;-65
2022/04/16 04:40:01;;;;;;;32.03;17.77;;;7.00;99.90;;;;;;5073133;28;19999;-65
2022/04/16 04:42:29;;;;;;;41.42;26.17;;;7.10;99.90;;;;;;5073220;28;20049;-65
2022/04/16 04:44:56;;;;;;;40.72;24.90;;;7.10;99.90;;;;;;5071893;28;20502;-65
2022/04/16 04:47:21;;;;;;;43.40;26.27;;;7.10;99.90;;;;;;5070786;28;20044;-65
2022/04/16 04:49:49;;;;;;;41.95;25.67;;;7.10;99.90;;;;;;5073122;28;20036;-65
2022/04/16 04:52:29;;;;;;;39.65;25.58;;;7.10;99.90;;;;;;5071856;28;20396;-65
2022/04/16 04:54:57;;;;;;;42.88;25.73;;;7.20;99.90;;;;;;5071981;28;20033;-65
2022/04/16 04:57:23;;;;;;;37.90;25.52;;;7.20;99.90;;;;;;5072743;28;20580;-65
2022/04/16 04:59:49;;;;;;;39.45;25.40;;;7.20;99.90;;;;;;5072994;28;20381;-65
2022/04/16 05:02:15;;;;;;;36.30;23.98;;;7.20;99.90;;;;;;5072783;28;20044;-65
2022/04/16 05:04:41;;;;;;;42.42;25.10;;;7.20;99.90;;;;;;5071532;28;20051;-65
2022/04/16 05:07:07;;;;;;;37.08;23.60;;;7.20;99.90;;;;;;5072735;28;20072;-65
2022/04/16 05:09:34;;;;;;;38.13;24.05;;;7.20;99.90;;;;;;5072851;28;20086;-65
2022/04/16 05:12:00;;;;;;;40.33;24.83;;;7.20;99.90;;;;;;5071687;28;20121;-65
2022/04/16 05:14:25;;;;;;;40.60;23.88;;;7.20;99.90;;;;;;5057857;28;20051;-64
2022/04/16 05:16:51;;;;;;;39.15;24.10;;;7.20;99.90;;;;;;5051563;28;20037;-64
2022/04/16 05:19:17;;;;;;;37.33;23.50;;;7.20;99.90;;;;;;5051779;28;20041;-64
2022/04/16 05:21:43;;;;;;;38.95;24.45;;;7.20;99.90;;;;;;5052256;28;20052;-65
2022/04/16 05:24:10;;;;;;;39.28;23.50;;;7.20;99.90;;;;;;5051230;28;20041;-64
2022/04/16 05:26:37;;;;;;;37.15;22.00;;;7.20;99.90;;;;;;5052539;28;20072;-65
2022/04/16 05:29:03;;;;;;;39.13;22.00;;;7.20;99.90;;;;;;5034397;28;20040;-65
2022/04/16 05:31:32;;;;;;;36.05;23.95;;;7.20;99.90;;;;;;5052503;28;20071;-64
2022/04/16 05:36:48;;;;;;;36.97;24.63;;;7.30;99.90;;;;;;5051421;28;20276;-64
2022/04/16 05:39:16;;;;;;;39.42;23.17;;;7.30;99.90;;;;;;5054375;28;20494;-64
2022/04/16 05:41:43;;;;;;;37.30;24.40;;;7.30;99.90;;;;;;5055589;28;20049;-64
2022/04/16 05:44:10;;;;;;;39.42;25.33;;;7.40;99.90;;;;;;5056281;28;20043;-64
2022/04/16 05:46:36;;;;;;;34.42;23.33;;;7.40;99.90;;;;;;5055216;28;20048;-64
2022/04/16 05:49:03;;;;;;;37.80;24.65;;;7.50;99.90;;;;;;5052835;28;20178;-65
2022/04/16 05:51:30;;;;;;;38.03;25.85;;;7.50;99.90;;;;;;5055291;28;20040;-64
2022/04/16 05:53:56;;;;;;;33.08;22.52;;;7.50;99.90;;;;;;5038261;28;20079;-65
2022/04/16 05:56:23;;;;;;;40.05;25.25;;;7.50;99.90;;;;;;5054903;28;20158;-65
2022/04/16 05:58:49;;;;;;;35.92;23.08;;;7.60;99.90;;;;;;5054919;28;20045;-64
2022/04/16 06:01:15;;;;;;;35.17;24.55;;;7.60;99.90;;;;;;5054911;28;20044;-64
2022/04/16 06:03:41;;;;;;;33.60;22.23;;;7.60;99.90;;;;;;5056209;28;20523;-66
2022/04/16 06:06:10;;;;;;;34.50;22.30;;;7.60;99.90;;;;;;5056081;28;20049;-65
2022/04/16 06:08:36;;;;;;;30.88;22.33;;;7.70;99.90;;;;;;5038089;28;20049;-64
2022/04/16 06:11:04;;;;;;;33.00;21.52;;;7.70;99.90;;;;;;5038052;28;20041;-64
2022/04/16 06:13:30;;;;;;;28.10;16.98;;;7.80;99.90;;;;;;5061704;28;20115;-65
2022/04/16 06:15:57;;;;;;;29.15;20.05;;;7.80;99.90;;;;;;5074548;28;20051;-65
2022/04/16 06:18:23;;;;;;;29.70;18.50;;;7.90;99.90;;;;;;5073811;28;20033;-64
2022/04/16 06:20:49;;;;;;;29.52;20.05;;;8.00;99.90;;;;;;5074716;28;20123;-65
2022/04/16 06:23:14;;;;;;;28.30;19.95;;;8.00;99.90;;;;;;5075614;28;20071;-65
2022/04/16 06:25:40;;;;;;;29.80;19.35;;;8.00;99.90;;;;;;5075432;28;20059;-66
2022/04/16 06:28:06;;;;;;;26.83;18.85;;;8.10;99.90;;;;;;5072964;28;20044;-65
2022/04/16 06:30:32;;;;;;;29.60;20.02;;;8.10;99.90;;;;;;5057516;28;20040;-66
2022/04/16 06:32:58;;;;;;;28.15;19.42;;;8.10;99.90;;;;;;5075869;28;20094;-65
2022/04/16 06:35:24;;;;;;;24.20;16.85;;;8.20;99.90;;;;;;5074443;28;20032;-65
2022/04/16 06:37:50;;;;;;;30.10;17.85;;;8.20;99.90;;;;;;5074463;28;20035;-65
2022/04/16 06:40:16;;;;;;;25.83;18.38;;;8.20;99.90;;;;;;5074052;28;20488;-65
2022/04/16 06:42:42;;;;;;;25.13;17.38;;;8.30;99.90;;;;;;5074256;28;20044;-65
2022/04/16 06:45:10;;;;;;;19.15;14.55;;;8.40;99.90;;;;;;5073954;28;20098;-65
2022/04/16 06:47:36;;;;;;;27.45;17.20;;;8.40;99.90;;;;;;5061120;28;20098;-66
2022/04/16 06:50:03;;;;;;;22.90;15.02;;;8.50;99.90;;;;;;5056150;28;20037;-66
2022/04/16 06:52:29;;;;;;;23.73;15.20;;;8.80;99.90;;;;;;5066235;28;20079;-66
2022/04/16 06:54:59;;;;;;;21.65;15.52;;;9.20;99.90;;;;;;5071258;28;20032;-66
2022/04/16 06:57:25;;;;;;;20.60;13.80;;;9.60;99.90;;;;;;5069518;28;20028;-67
2022/04/16 06:59:51;;;;;;;18.23;12.57;;;9.80;99.90;;;;;;5069167;28;20311;-65
2022/04/16 07:02:17;;;;;;;21.35;13.85;;;10.10;99.90;;;;;;5053065;28;20064;-66
2022/04/16 07:04:43;;;;;;;14.70;9.93;;;10.20;99.90;;;;;;5069816;28;20040;-66
2022/04/16 07:07:09;;;;;;;20.85;13.07;;;10.30;99.90;;;;;;5085185;28;20118;-65
2022/04/16 07:09:38;;;;;;;18.70;13.32;;;10.40;99.90;;;;;;5069392;28;20105;-65
2022/04/16 07:12:09;;;;;;;17.33;13.13;;;10.40;99.90;;;;;;5069414;28;20113;-65
2022/04/16 07:14:36;;;;;;;16.38;11.70;;;10.40;99.90;;;;;;5067570;28;20041;-65
2022/04/16 07:17:03;;;;;;;18.63;12.88;;;10.40;99.90;;;;;;5067137;28;20124;-65
2022/04/16 07:19:29;;;;;;;18.83;12.98;;;10.40;99.90;;;;;;5069196;28;20044;-65
2022/04/16 07:21:55;;;;;;;16.60;12.27;;;10.40;99.90;;;;;;5049565;28;20077;-65
2022/04/16 07:24:23;;;;;;;18.55;11.88;;;10.40;99.90;;;;;;5068841;28;20045;-65
2022/04/16 07:26:49;;;;;;;19.33;12.82;;;10.40;99.90;;;;;;5068845;28;20040;-64
2022/04/16 07:29:15;;;;;;;19.05;13.27;;;10.40;99.90;;;;;;5068770;28;20043;-65
2022/04/16 07:31:41;;;;;;;20.15;12.98;;;10.40;99.90;;;;;;5070500;28;20111;-66
2022/04/16 07:34:06;;;;;;;17.20;11.30;;;10.60;99.90;;;;;;5070267;28;20182;-66
2022/04/16 07:36:32;;;;;;;16.10;11.80;;;10.80;99.90;;;;;;5052084;28;20461;-66
2022/04/16 07:38:58;;;;;;;18.25;13.15;;;11.00;99.90;;;;;;5069125;28;20040;-65
2022/04/16 07:41:24;;;;;;;20.13;12.52;;;11.20;99.90;;;;;;5070568;28;20488;-65
2022/04/16 07:43:49;;;;;;;16.05;11.68;;;11.40;99.90;;;;;;5072971;28;20076;-65
2022/04/16 07:46:18;;;;;;;16.63;10.70;;;11.60;99.90;;;;;;5072980;28;20443;-65
2022/04/16 07:48:44;;;;;;;18.67;11.40;;;11.80;99.90;;;;;;5070687;28;20044;-65
2022/04/16 07:51:10;;;;;;;13.85;10.18;;;12.00;99.90;;;;;;5062548;28;20048;-65
2022/04/16 07:53:36;;;;;;;19.25;11.20;;;12.20;99.90;;;;;;5054019;28;20122;-65
2022/04/16 07:56:02;;;;;;;11.82;7.85;;;12.40;99.90;;;;;;5052710;28;20048;-64
2022/04/16 07:58:28;;;;;;;15.38;11.07;;;12.60;99.90;;;;;;5054296;28;20100;-65
2022/04/16 08:00:53;;;;;;;16.42;10.43;;;12.70;99.90;;;;;;5056936;28;20444;-66
2022/04/16 08:03:19;;;;;;;16.17;10.93;;;12.80;99.90;;;;;;5073064;28;20427;-66
2022/04/16 08:05:45;;;;;;;15.10;9.80;;;12.90;99.90;;;;;;5056092;28;20033;-66
2022/04/16 08:08:12;;;;;;;15.52;10.85;;;13.00;99.90;;;;;;5073768;28;20370;-66
2022/04/16 08:10:38;;;;;;;16.02;11.45;;;13.20;99.90;;;;;;5066021;28;20037;-66
2022/04/16 08:13:07;;;;;;;17.33;10.38;;;13.40;99.90;;;;;;5052271;28;20544;-66
2022/04/16 08:15:34;;;;;;;16.48;10.68;;;13.60;99.90;;;;;;5060660;28;20035;-66
2022/04/16 08:18:02;;;;;;;13.05;10.23;;;13.80;99.90;;;;;;5070277;28;20036;-66
2022/04/16 08:20:27;;;;;;;15.23;10.10;;;14.10;99.90;;;;;;5073578;28;20041;-66
2022/04/16 08:22:53;;;;;;;14.70;10.77;;;14.40;99.90;;;;;;5073216;28;20676;-66
2022/04/16 08:27:46;;;;;;;11.93;8.93;;;14.90;99.90;;;;;;5073701;28;20404;-66
2022/04/16 08:30:14;;;;;;;12.98;8.75;;;15.10;99.90;;;;;;5072033;28;20041;-66
2022/04/16 08:32:41;;;;;;;11.93;8.82;;;15.20;99.90;;;;;;5072008;28;20090;-66
2022/04/16 08:35:12;;;;;;;11.70;9.13;;;15.30;99.90;;;;;;5071871;28;20036;-75
2022/04/16 08:37:37;;;;;;;14.40;9.45;;;15.40;99.90;;;;;;5071882;28;20028;-66
2022/04/16 08:40:05;;;;;;;11.13;8.43;;;15.60;99.90;;;;;;5069688;28;20117;-66
2022/04/16 08:42:33;;;;;;;11.95;8.90;;;15.70;99.90;;;;;;5064437;28;20040;-66
2022/04/16 08:45:00;;;;;;;10.07;8.02;;;15.70;99.90;;;;;;5072596;28;20028;-66
2022/04/16 08:47:26;;;;;;;14.40;10.45;;;15.60;99.90;;;;;;5069324;28;20044;-77
2022/04/16 08:49:53;;;;;;;12.90;8.45;;;15.70;99.90;;;;;;5072631;28;20028;-75
2022/04/16 08:52:22;;;;;;;12.50;9.00;;;15.80;99.90;;;;;;5072999;28;20044;-78
2022/04/16 08:54:48;;;;;;;10.15;8.00;;;16.00;99.90;;;;;;5072402;28;20488;-76
2022/04/16 08:57:13;;;;;;;10.43;8.25;;;16.20;99.90;;;;;;5071270;28;20087;-75
2022/04/16 08:59:47;;;;;;;10.82;8.32;;;16.20;99.90;;;;;;5072664;28;20052;-76
2022/04/16 09:02:13;;;;;;;10.98;8.70;;;16.20;99.90;;;;;;5071509;28;20044;-74
2022/04/16 09:04:39;;;;;;;10.73;7.80;;;16.30;99.90;;;;;;5071650;28;20127;-76
2022/04/16 09:07:05;;;;;;;10.30;7.75;;;16.40;99.90;;;;;;5072294;28;20116;-75
2022/04/16 09:09:31;;;;;;;10.88;8.18;;;16.60;99.90;;;;;;5071299;28;20040;-74
2022/04/16 09:11:57;;;;;;;9.35;7.75;;;16.60;99.90;;;;;;5071233;28;20052;-75
2022/04/16 09:14:35;;;;;;;11.10;8.75;;;16.50;99.90;;;;;;5067060;28;20124;-74
2022/04/16 09:17:09;;;;;;;11.55;8.30;;;16.40;99.90;;;;;;5050122;28;20339;-77
2022/04/16 09:19:36;;;;;;;9.57;7.63;;;16.30;99.90;;;;;;5052959;28;20049;-76
2022/04/16 09:22:02;;;;;;;10.00;7.78;;;16.60;99.90;;;;;;5055437;28;21285;-74
2022/04/16 09:24:43;;;;;;;8.30;6.40;;;16.90;99.90;;;;;;5073293;28;20045;-75
2022/04/16 09:27:09;;;;;;;8.20;6.53;;;17.20;99.90;;;;;;5071328;28;20041;-73
2022/04/16 09:29:35;;;;;;;9.13;7.18;;;17.30;99.60;;;;;;5071212;28;20119;-74
2022/04/16 09:32:01;;;;;;;9.63;6.65;;;17.20;96.10;;;;;;5072522;28;20039;-75
2022/04/16 09:34:27;;;;;;;9.20;6.53;;;17.30;98.80;;;;;;5071462;28;20049;-75
2022/04/16 09:37:14;;;;;;;9.85;7.22;;;17.50;99.20;;;;;;5072498;28;20090;-75
2022/04/16 09:39:43;;;;;;;;;;;17.70;98.90;;;;;;5053128;28;20052;-74
2022/04/16 09:42:10;;;;;;;8.27;6.10;;;17.80;92.80;;;;;;5051229;28;19916;-75
2022/04/16 09:44:36;;;;;;;7.65;5.38;;;17.60;96.00;;;;;;5052406;28;20047;-76
2022/04/16 09:47:03;;;;;;;8.20;6.07;;;17.50;94.20;;;;;;5049227;28;20124;-67
2022/04/16 09:49:35;;;;;;;7.53;5.72;;;17.50;92.30;;;;;;5069246;28;20500;-67
2022/04/16 09:52:05;;;;;;;7.55;5.75;;;17.60;90.30;;;;;;5072514;28;20048;-67
2022/04/16 09:54:33;;;;;;;7.90;6.22;;;17.70;90.40;;;;;;5071207;28;20502;-66
2022/04/16 09:57:01;;;;;;;7.25;5.68;;;17.90;90.50;;;;;;5071099;28;20040;-66
2022/04/16 09:59:35;;;;;;;7.10;5.55;;;17.90;92.00;;;;;;5054366;28;20036;-66
2022/04/16 10:02:02;;;;;;;5.82;4.38;;;18.00;92.30;;;;;;5070994;28;20040;-66
2022/04/16 10:04:30;;;;;;;5.07;4.40;;;18.10;86.60;;;;;;5071130;28;20076;-65
2022/04/16 10:06:56;;;;;;;8.40;4.75;;;18.30;90.00;;;;;;5070984;28;20040;-66
2022/04/16 10:09:27;;;;;;;5.35;4.38;;;18.50;88.80;;;;;;5071244;28;20347;-66
2022/04/16 10:15:12;;;;;;;6.90;4.90;;;18.60;77.80;;;;;;5072120;28;20036;-65
2022/04/16 10:17:49;;;;;;;6.13;4.45;;;18.70;78.70;;;;;;5068782;28;20505;-66
2022/04/16 10:20:20;;;;;;;7.20;5.00;;;18.70;80.40;;;;;;5071726;28;20048;-66
2022/04/16 10:22:57;;;;;;;6.75;4.55;;;18.90;80.30;;;;;;5054024;28;20153;-66
2022/04/16 10:25:30;;;;;;;4.95;4.32;;;18.90;73.40;;;;;;5070061;28;20040;-66
2022/04/16 10:28:03;;;;;;;5.53;4.03;;;18.80;75.00;;;;;;5074303;28;20124;-67
2022/04/16 10:30:49;;;;;;;4.22;3.50;;;18.80;78.70;;;;;;5055250;28;20472;-66
2022/04/16 10:33:31;;;;;;;4.43;2.63;;;18.90;77.80;;;;;;5054593;28;20048;-67
2022/04/16 10:36:09;;;;;;;4.25;2.70;;;19.30;73.00;;;;;;5054440;28;20037;-67
2022/04/16 10:38:43;;;;;;;3.13;2.20;;;19.40;67.00;;;;;;5054557;28;20131;-66
2022/04/16 10:41:19;;;;;;;4.07;2.65;;;19.40;71.30;;;;;;5055489;28;20094;-66
2022/04/16 10:43:59;;;;;;;3.17;2.10;;;19.40;65.10;;;;;;5056490;28;20040;-66
2022/04/16 10:46:46;;;;;;;3.20;1.85;;;19.40;64.00;;;;;;5075516;28;20190;-66
2022/04/16 10:49:13;;;;;;;3.63;2.22;;;19.40;58.80;;;;;;5072191;28;20089;-65
2022/04/16 10:51:39;;;;;;;3.83;2.33;;;19.20;60.30;;;;;;5074116;28;20044;-65
2022/04/16 10:54:12;;;;;;;2.75;2.03;;;19.10;61.40;;;;;;5074437;28;20097;-68
2022/04/16 10:56:42;;;;;;;2.88;1.60;;;19.10;67.00;;;;;;5075442;28;20033;-66
2022/04/16 10:59:08;;;;;;;;;;;19.10;60.00;;;;;;5055176;28;20036;-65
2022/04/16 11:01:35;;;;;;;3.10;2.03;;;19.00;58.60;;;;;;5073960;28;20026;-66
2022/04/16 11:04:13;;;;;;;2.60;1.60;;;18.90;58.80;;;;;;5074019;28;20051;-67
2022/04/16 11:06:45;;;;;;;4.13;1.50;;;19.00;62.20;;;;;;5070888;28;20040;-67
2022/04/16 11:09:20;;;;;;;2.67;1.45;;;19.10;58.60;;;;;;5075267;28;20032;-66
2022/04/16 11:11:52;;;;;;;3.05;1.48;;;19.10;58.20;;;;;;5074949;28;20053;-64
2022/04/16 11:14:19;;;;;;;2.22;1.45;;;19.20;57.10;;;;;;5042670;28;20152;-65
2022/04/16 11:16:47;;;;;;;4.45;1.52;;;19.10;57.70;;;;;;5059591;28;20116;-66
2022/04/16 11:19:16;;;;;;;3.72;1.75;;;19.10;54.90;;;;;;5072887;28;20033;-65
2022/04/16 11:21:43;;;;;;;4.07;1.50;;;19.00;57.00;;;;;;5056926;28;20076;-65
2022/04/16 11:24:10;;;;;;;3.00;1.40;;;19.00;55.20;;;;;;5073458;28;20060;-66
2022/04/16 11:34:57;;;;;;;3.00;1.70;;;19.30;54.00;;;;;;5072113;28;20037;-65
2022/04/16 11:37:32;;;;;;;2.28;1.63;;;19.20;54.40;;;;;;5074123;28;20100;-65
2022/04/16 11:40:07;;;;;;;2.55;1.40;;;19.10;56.50;;;;;;5073549;28;20051;-65
2022/04/16 11:42:37;;;;;;;2.13;1.58;;;19.20;55.10;;;;;;5074509;28;20127;-64
2022/04/16 11:45:06;;;;;;;3.08;1.02;;;19.20;54.40;;;;;;5073210;28;20083;-64
2022/04/16 11:47:36;;;;;;;1.95;1.30;;;19.20;53.10;;;;;;5071971;28;20371;-63
2022/04/16 11:50:05;;;;;;;;;;;19.20;51.20;;;;;;5073647;28;20057;-65
2022/04/16 11:52:34;;;;;;;2.83;1.70;;;19.10;52.00;;;;;;5074393;28;20003;-67
2022/04/16 11:55:17;;;;;;;2.70;1.80;;;19.00;53.20;;;;;;5073137;28;20033;-66
2022/04/16 11:57:49;;;;;;;2.65;1.30;;;19.10;51.10;;;;;;5074265;28;20056;-66
2022/04/16 12:00:19;;;;;;;2.90;1.40;;;19.00;50.70;;;;;;5074484;28;20032;-66
2022/04/16 12:02:47;;;;;;;3.17;1.00;;;19.00;52.80;;;;;;5073792;28;20051;-67
2022/04/16 12:05:24;;;;;;;3.17;1.45;;;18.90;49.40;;;;;;5073068;28;20044;-67
2022/04/16 12:07:52;;;;;;;2.10;1.05;;;18.80;50.60;;;;;;5046797;28;20037;-66
2022/04/16 12:10:18;;;;;;;1.70;1.10;;;18.70;51.00;;;;;;5057994;28;20043;-65
2022/04/16 12:12:54;;;;;;;2.78;1.27;;;18.80;50.40;;;;;;5071700;28;20088;-65
2022/04/16 12:15:34;;;;;;;4.70;1.23;;;18.70;47.90;;;;;;5052929;28;20080;-66
2022/04/16 12:18:12;;;;;;;3.38;1.30;;;18.60;48.70;;;;;;5051430;28;20116;-67
2022/04/16 12:20:46;;;;;;;2.63;1.35;;;18.60;45.60;;;;;;5036187;28;20041;-67
2022/04/16 12:23:25;;;;;;;1.38;0.80;;;18.50;45.10;;;;;;5034974;28;20128;-66
2022/04/16 12:26:14;;;;;;;1.35;0.77;;;18.40;47.60;;;;;;5069654;28;20411;-67
2022/04/16 12:28:51;;;;;;;1.50;0.70;;;18.30;48.90;;;;;;5072064;28;20038;-66
2022/04/16 12:31:32;;;;;;;1.55;0.70;;;18.30;46.80;;;;;;5073351;28;20535;-67
2022/04/16 12:33:59;;;;;;;1.15;0.77;;;18.30;44.70;;;;;;5072330;28;20119;-67
2022/04/16 12:36:27;;;;;;;1.55;0.80;;;18.40;45.80;;;;;;5073298;28;20051;-67
2022/04/16 12:38:54;;;;;;;1.73;0.70;;;18.30;44.20;;;;;;5072291;28;20041;-65
2022/04/16 12:41:24;;;;;;;2.05;0.85;;;18.20;45.70;;;;;;5072077;28;20123;-67
2022/04/16 12:43:50;;;;;;;2.70;0.80;;;18.00;45.80;;;;;;5073224;28;20119;-66
2022/04/16 12:46:16;;;;;;;1.42;0.85;;;17.90;46.60;;;;;;5073126;28;20052;-66
2022/04/16 12:48:42;;;;;;;1.02;0.50;;;17.70;44.80;;;;;;5070088;28;20040;-65
2022/04/16 12:51:10;;;;;;;2.13;0.85;;;17.50;44.30;;;;;;5073029;28;20416;-65
2022/04/16 12:53:37;;;;;;;1.80;0.82;;;17.40;45.60;;;;;;5072961;28;20556;-67
2022/04/16 12:56:03;;;;;;;2.15;0.60;;;17.30;47.20;;;;;;5071967;28;20072;-67
2022/04/16 12:58:30;;;;;;;1.52;0.60;;;17.40;45.40;;;;;;5068860;28;20037;-65
2022/04/16 13:00:56;;;;;;;1.63;0.75;;;17.40;43.00;;;;;;5072983;28;20124;-65
2022/04/16 13:03:22;;;;;;;1.80;0.77;;;17.30;42.60;;;;;;5055329;28;20097;-66
2022/04/16 13:05:49;;;;;;;1.20;0.80;;;17.20;43.80;;;;;;5071601;28;20048;-67
2022/04/16 13:08:16;;;;;;;1.83;0.65;;;17.00;45.00;;;;;;5072467;28;20040;-67
2022/04/16 13:10:46;;;;;;;1.80;0.65;;;16.90;45.10;;;;;;5068811;28;20390;-66
2022/04/16 13:13:12;;;;;;;1.00;0.47;;;16.90;42.40;;;;;;5065968;28;20029;-65